createdAt,value
2022-11-23T00:01:37.521Z,21.90
2022-11-23T00:04:10.851Z,19.70
2022-11-23T00:06:39.577Z,17.10
2022-11-23T00:09:08.948Z,20.00
2022-11-23T00:11:37.252Z,25.10
2022-11-23T00:14:06.375Z,19.30
2022-11-23T00:16:34.517Z,15.90
2022-11-23T00:19:03.012Z,12.20
2022-11-23T00:21:32.622Z,12.70
2022-11-23T00:24:00.998Z,11.50
2022-11-23T00:26:29.111Z,10.10
2022-11-23T00:28:57.848Z,9.60
2022-11-23T00:31:29.333Z,9.30
2022-11-23T00:33:58.165Z,11.10
2022-11-23T00:36:28.066Z,9.20
2022-11-23T00:38:56.395Z,9.30
2022-11-23T00:41:27.892Z,23.00
2022-11-23T00:43:56.157Z,17.60
2022-11-23T00:46:26.443Z,15.40
2022-11-23T00:48:56.746Z,15.40
2022-11-23T00:51:32.215Z,14.10
2022-11-23T00:54:01.957Z,19.40
2022-11-23T00:56:31.227Z,17.90
2022-11-23T00:59:00.887Z,24.00
2022-11-23T01:01:34.219Z,12.70
2022-11-23T01:04:04.848Z,17.30
2022-11-23T01:06:35.361Z,20.00
2022-11-23T01:09:12.033Z,21.50
2022-11-23T01:11:40.750Z,14.70
2022-11-23T01:14:08.642Z,14.40
2022-11-23T01:16:42.010Z,11.50
2022-11-23T01:19:13.863Z,17.60
2022-11-23T01:21:42.875Z,14.60
2022-11-23T01:24:23.647Z,21.50
2022-11-23T01:26:53.529Z,16.10
2022-11-23T01:29:23.164Z,16.10
2022-11-23T01:31:51.417Z,16.70
2022-11-23T01:34:19.376Z,20.20
2022-11-23T01:36:47.469Z,13.50
2022-11-23T01:39:15.601Z,12.30
2022-11-23T01:41:45.661Z,13.20
2022-11-23T01:44:31.910Z,14.90
2022-11-23T01:47:02.593Z,14.00
2022-11-23T01:49:39.136Z,17.50
2022-11-23T01:52:20.336Z,16.10
2022-11-23T01:54:52.657Z,12.70
2022-11-23T01:57:31.425Z,14.90
2022-11-23T02:00:02.342Z,13.50
2022-11-23T02:02:50.821Z,16.10
2022-11-23T02:05:21.987Z,16.40
2022-11-23T02:07:50.227Z,17.10
2022-11-23T02:10:19.648Z,14.30
2022-11-23T02:12:47.827Z,20.70
2022-11-23T02:15:15.874Z,14.60
2022-11-23T02:17:45.052Z,14.80
2022-11-23T02:20:16.337Z,15.00
2022-11-23T02:23:10.422Z,16.70
2022-11-23T02:25:43.729Z,17.50
2022-11-23T02:28:25.125Z,17.10
2022-11-23T02:30:55.148Z,18.30
2022-11-23T02:33:26.087Z,19.10
2022-11-23T02:36:01.705Z,19.80
2022-11-23T02:38:33.448Z,15.00
2022-11-23T02:41:01.612Z,9.80
2022-11-23T02:43:29.620Z,13.60
2022-11-23T02:46:01.920Z,10.30
2022-11-23T02:48:29.949Z,10.80
2022-11-23T02:50:57.903Z,8.80
2022-11-23T02:53:26.350Z,9.80
2022-11-23T02:55:55.192Z,8.80
2022-11-23T02:58:25.718Z,8.00
2022-11-23T03:00:53.759Z,7.60
2022-11-23T03:03:23.374Z,12.00
2022-11-23T03:05:51.784Z,17.00
2022-11-23T03:08:20.523Z,16.80
2022-11-23T03:10:49.134Z,15.80
2022-11-23T03:13:17.023Z,19.20
2022-11-23T03:15:45.588Z,19.60
2022-11-23T03:18:13.632Z,13.20
2022-11-23T03:20:42.287Z,15.90
2022-11-23T03:23:10.313Z,20.80
2022-11-23T03:25:40.239Z,20.40
2022-11-23T03:28:08.551Z,15.90
2022-11-23T03:30:38.001Z,13.60
2022-11-23T03:33:06.977Z,16.60
2022-11-23T03:35:36.504Z,16.90
2022-11-23T03:38:17.366Z,19.80
2022-11-23T03:40:46.788Z,14.80
2022-11-23T03:43:23.501Z,13.60
2022-11-23T03:45:51.692Z,11.80
2022-11-23T03:48:20.253Z,13.60
2022-11-23T03:50:48.967Z,9.50
2022-11-23T03:53:17.040Z,10.90
2022-11-23T03:55:47.854Z,11.20
2022-11-23T03:58:16.287Z,11.10
2022-11-23T04:00:44.551Z,16.70
2022-11-23T04:03:13.620Z,12.00
2022-11-23T04:06:16.665Z,17.10
2022-11-23T04:09:02.516Z,15.30
2022-11-23T04:11:55.297Z,18.10
2022-11-23T04:14:23.658Z,22.10
2022-11-23T04:16:54.402Z,15.50
2022-11-23T04:19:22.767Z,22.70
2022-11-23T04:21:51.016Z,13.50
2022-11-23T04:24:19.631Z,22.00
2022-11-23T04:26:48.302Z,17.80
2022-11-23T04:29:16.474Z,23.90
2022-11-23T04:31:47.650Z,16.80
2022-11-23T04:34:18.497Z,14.60
2022-11-23T04:36:46.557Z,8.60
2022-11-23T04:39:14.748Z,8.10
2022-11-23T04:41:55.338Z,7.50
2022-11-23T04:44:24.607Z,11.00
2022-11-23T04:46:57.188Z,7.60
2022-11-23T04:49:26.451Z,7.50
2022-11-23T04:51:56.060Z,10.30
2022-11-23T04:54:30.062Z,8.80
2022-11-23T04:56:59.903Z,6.70
2022-11-23T04:59:28.202Z,7.50
2022-11-23T05:01:58.536Z,10.40
2022-11-23T05:04:39.506Z,13.20
2022-11-23T05:07:07.575Z,10.80
2022-11-23T05:09:37.455Z,16.30
2022-11-23T05:12:18.545Z,45.30
2022-11-23T05:14:47.145Z,13.00
2022-11-23T05:17:19.805Z,15.30
2022-11-23T05:19:48.243Z,35.00
2022-11-23T05:22:16.772Z,23.70
2022-11-23T05:24:44.888Z,10.40
2022-11-23T05:27:16.902Z,10.80
2022-11-23T05:29:45.026Z,8.80
2022-11-23T05:32:13.408Z,10.80
2022-11-23T05:34:41.590Z,25.40
2022-11-23T05:37:11.571Z,9.10
2022-11-23T05:39:47.931Z,11.80
2022-11-23T05:42:16.028Z,9.90
2022-11-23T05:44:44.090Z,11.20
2022-11-23T05:47:19.530Z,9.80
2022-11-23T05:49:49.580Z,18.50
2022-11-23T05:52:18.624Z,18.90
2022-11-23T05:54:47.395Z,14.10
2022-11-23T05:57:18.306Z,17.70
2022-11-23T05:59:47.539Z,11.40
2022-11-23T06:02:21.700Z,7.60
2022-11-23T06:04:53.087Z,8.60
2022-11-23T06:07:26.471Z,17.70
2022-11-23T06:10:10.191Z,27.10
2022-11-23T06:12:40.445Z,28.80
2022-11-23T06:15:17.809Z,30.70
2022-11-23T06:17:47.710Z,37.70
2022-11-23T06:20:19.539Z,50.70
2022-11-23T06:22:55.734Z,63.10
2022-11-23T06:25:28.831Z,63.50
2022-11-23T06:28:18.769Z,53.10
2022-11-23T06:30:48.371Z,30.80
2022-11-23T06:33:16.439Z,43.40
2022-11-23T06:36:01.616Z,26.90
2022-11-23T06:38:38.109Z,22.00
2022-11-23T06:41:11.661Z,15.60
2022-11-23T06:43:40.665Z,13.20
2022-11-23T06:46:11.490Z,13.10
2022-11-23T06:48:45.836Z,12.30
2022-11-23T06:51:17.874Z,17.30
2022-11-23T06:53:46.218Z,12.30
2022-11-23T06:56:14.882Z,14.50
2022-11-23T06:58:43.329Z,14.00
2022-11-23T07:01:17.705Z,14.80
2022-11-23T07:03:54.985Z,14.80
2022-11-23T07:06:27.681Z,16.90
2022-11-23T07:08:58.335Z,18.60
2022-11-23T07:11:38.844Z,13.30
2022-11-23T07:14:07.068Z,15.50
2022-11-23T07:16:39.242Z,16.00
2022-11-23T07:19:11.186Z,12.60
2022-11-23T07:21:39.254Z,17.90
2022-11-23T07:24:07.485Z,17.00
2022-11-23T07:26:36.610Z,27.00
2022-11-23T07:29:05.484Z,24.80
2022-11-23T07:31:33.908Z,29.20
2022-11-23T07:34:05.937Z,22.30
2022-11-23T07:36:34.159Z,17.30
2022-11-23T07:39:02.525Z,29.20
2022-11-23T07:41:30.952Z,30.30
2022-11-23T07:44:22.868Z,11.30
2022-11-23T07:46:54.129Z,18.10
2022-11-23T07:49:22.131Z,15.40
2022-11-23T07:51:50.343Z,13.50
2022-11-23T07:54:23.669Z,11.30
2022-11-23T07:56:52.153Z,16.70
2022-11-23T07:59:20.613Z,23.70
2022-11-23T08:01:57.035Z,15.00
2022-11-23T08:04:27.843Z,15.50
2022-11-23T08:06:57.913Z,14.70
2022-11-23T08:09:26.444Z,15.50
2022-11-23T08:11:56.699Z,10.70
2022-11-23T08:14:24.861Z,10.90
2022-11-23T08:16:53.548Z,9.50
2022-11-23T08:19:24.473Z,10.60
2022-11-23T08:21:55.189Z,9.90
2022-11-23T08:24:23.362Z,11.70
2022-11-23T08:26:51.681Z,16.60
2022-11-23T08:29:20.147Z,16.30
2022-11-23T08:31:51.620Z,12.60
2022-11-23T08:34:20.847Z,13.00
2022-11-23T08:36:49.303Z,11.20
2022-11-23T08:39:19.888Z,10.30
2022-11-23T08:41:48.139Z,19.40
2022-11-23T08:44:16.347Z,19.70
2022-11-23T08:46:47.131Z,21.10
2022-11-23T08:49:15.388Z,16.10
2022-11-23T08:51:49.686Z,14.00
2022-11-23T08:54:24.265Z,17.50
2022-11-23T08:56:52.739Z,18.20
2022-11-23T08:59:20.836Z,13.30
2022-11-23T09:01:54.127Z,18.70
2022-11-23T09:04:23.278Z,12.80
2022-11-23T09:06:54.351Z,14.00
2022-11-23T09:09:26.196Z,14.60
2022-11-23T09:11:55.143Z,14.50
2022-11-23T09:14:24.495Z,10.70
2022-11-23T09:16:57.170Z,15.70
2022-11-23T09:19:25.316Z,14.00
2022-11-23T09:21:56.835Z,11.50
2022-11-23T09:24:25.914Z,11.40
2022-11-23T09:26:54.522Z,11.90
2022-11-23T09:29:23.331Z,11.30
2022-11-23T09:31:51.517Z,13.20
2022-11-23T09:34:20.638Z,12.70
2022-11-23T09:36:49.864Z,12.60
2022-11-23T09:39:18.563Z,20.40
2022-11-23T09:41:58.041Z,10.50
2022-11-23T09:45:00.997Z,12.80
2022-11-23T09:47:41.461Z,13.60
2022-11-23T09:50:35.329Z,11.70
2022-11-23T09:55:53.882Z,13.90
2022-11-23T09:58:42.091Z,28.50
2022-11-23T10:01:19.495Z,19.00
2022-11-23T10:03:53.700Z,14.00
2022-11-23T10:06:33.065Z,14.80
2022-11-23T10:09:37.597Z,12.00
2022-11-23T10:12:26.930Z,17.80
2022-11-23T10:14:59.849Z,13.60
2022-11-23T10:18:08.600Z,12.90
2022-11-23T10:21:15.499Z,11.00
2022-11-23T10:24:11.330Z,12.50
2022-11-23T10:26:44.954Z,12.20
2022-11-23T10:29:37.098Z,10.80
2022-11-23T10:32:47.279Z,12.10
2022-11-23T10:35:35.207Z,14.40
2022-11-23T10:38:19.332Z,10.50
2022-11-23T10:41:14.680Z,14.00
2022-11-23T10:43:51.738Z,13.90
2022-11-23T10:46:30.833Z,11.80
2022-11-23T10:49:35.418Z,8.70
2022-11-23T10:53:44.508Z,14.50
2022-11-23T10:56:16.434Z,14.10
2022-11-23T10:58:46.455Z,14.90
2022-11-23T11:01:19.265Z,12.50
2022-11-23T11:03:49.405Z,13.70
2022-11-23T11:06:31.865Z,13.60
2022-11-23T11:09:19.603Z,15.20
2022-11-23T11:11:52.317Z,14.40
2022-11-23T11:14:23.621Z,12.50
2022-11-23T11:16:58.124Z,12.20
2022-11-23T11:19:30.110Z,11.30
2022-11-23T11:22:02.876Z,9.50
2022-11-23T11:24:38.917Z,12.80
2022-11-23T11:27:17.681Z,12.90
2022-11-23T11:29:46.048Z,10.50
2022-11-23T11:32:21.733Z,10.10
2022-11-23T11:37:24.229Z,8.40
2022-11-23T11:40:01.678Z,9.50
2022-11-23T11:42:38.982Z,8.70
2022-11-23T11:45:16.616Z,6.10
2022-11-23T11:48:19.203Z,6.30
2022-11-23T11:50:53.925Z,7.10
2022-11-23T11:53:34.052Z,18.60
2022-11-23T11:56:16.909Z,8.40
2022-11-23T11:59:03.309Z,8.00
2022-11-23T12:01:54.857Z,8.90
2022-11-23T12:04:55.969Z,8.10
2022-11-23T12:07:43.223Z,7.40
2022-11-23T12:10:52.670Z,6.60
2022-11-23T12:13:31.525Z,7.60
2022-11-23T12:16:24.430Z,9.90
2022-11-23T12:19:15.389Z,7.60
2022-11-23T12:22:02.241Z,7.30
2022-11-23T12:25:14.463Z,9.10
2022-11-23T12:28:19.085Z,10.80
2022-11-23T12:30:51.226Z,12.60
2022-11-23T12:36:31.730Z,11.70
2022-11-23T12:39:28.917Z,11.30
2022-11-23T12:42:40.079Z,14.10
2022-11-23T12:45:20.685Z,9.50
2022-11-23T12:48:15.971Z,13.50
2022-11-23T12:51:12.549Z,13.00
2022-11-23T12:53:43.903Z,12.60
2022-11-23T12:56:44.801Z,22.90
2022-11-23T12:59:14.474Z,6.50
2022-11-23T13:01:47.820Z,12.00
2022-11-23T13:04:25.778Z,12.00
2022-11-23T13:07:28.431Z,14.10
2022-11-23T13:10:18.087Z,15.30
2022-11-23T13:12:53.928Z,13.90
2022-11-23T13:15:52.420Z,14.10
2022-11-23T13:18:33.072Z,14.00
2022-11-23T13:21:19.328Z,11.00
2022-11-23T13:23:48.419Z,20.10
2022-11-23T13:26:36.144Z,11.00
2022-11-23T13:29:43.510Z,13.40
2022-11-23T13:32:43.274Z,10.40
2022-11-23T13:35:19.345Z,12.40
2022-11-23T13:40:27.173Z,10.20
2022-11-23T13:43:01.936Z,12.80
2022-11-23T13:46:10.438Z,14.80
2022-11-23T13:48:56.831Z,14.00
2022-11-23T13:51:32.016Z,20.20
2022-11-23T13:54:06.680Z,9.40
2022-11-23T13:56:44.485Z,16.60
2022-11-23T13:59:25.313Z,13.10
2022-11-23T14:02:09.585Z,11.10
2022-11-23T14:04:39.609Z,14.30
2022-11-23T14:07:23.524Z,18.60
2022-11-23T14:09:55.077Z,12.50
2022-11-23T14:12:49.099Z,14.60
2022-11-23T14:15:31.049Z,14.60
2022-11-23T14:18:32.952Z,13.40
2022-11-23T14:21:14.976Z,17.60
2022-11-23T14:24:27.616Z,18.80
2022-11-23T14:27:45.757Z,18.10
2022-11-23T14:30:02.902Z,12.00
2022-11-23T14:33:14.823Z,14.40
2022-11-23T14:35:52.387Z,17.40
2022-11-23T14:38:20.775Z,13.70
2022-11-23T14:41:09.971Z,19.80
2022-11-23T14:43:41.785Z,16.30
2022-11-23T14:46:20.971Z,15.60
2022-11-23T14:48:49.923Z,14.50
2022-11-23T14:51:23.850Z,19.20
2022-11-23T14:53:56.346Z,14.50
2022-11-23T14:56:32.618Z,13.60
2022-11-23T14:59:29.040Z,26.00
2022-11-23T15:02:15.072Z,17.60
2022-11-23T15:05:02.324Z,18.60
2022-11-23T15:07:39.326Z,10.30
2022-11-23T15:10:47.512Z,52.50
2022-11-23T15:13:24.680Z,23.00
2022-11-23T15:15:55.961Z,23.70
2022-11-23T15:18:43.106Z,19.90
2022-11-23T15:21:12.193Z,25.10
2022-11-23T15:23:41.227Z,19.20
2022-11-23T15:26:46.877Z,20.50
2022-11-23T15:29:31.350Z,27.50
2022-11-23T15:32:28.550Z,22.30
2022-11-23T15:34:50.157Z,24.40
2022-11-23T15:37:19.031Z,24.70
2022-11-23T15:39:49.602Z,25.60
2022-11-23T15:42:21.192Z,20.90
2022-11-23T15:44:51.212Z,22.50
2022-11-23T15:47:27.956Z,19.30
2022-11-23T15:50:09.671Z,16.60
2022-11-23T15:52:39.844Z,17.70
2022-11-23T15:55:14.111Z,19.20
2022-11-23T15:57:43.245Z,20.50
2022-11-23T16:00:25.495Z,20.90
2022-11-23T16:03:30.898Z,20.00
2022-11-23T16:06:34.504Z,25.50
2022-11-23T16:09:07.382Z,21.00
2022-11-23T16:11:46.805Z,25.40
2022-11-23T16:14:20.828Z,41.20
2022-11-23T16:17:04.875Z,25.50
2022-11-23T16:19:34.705Z,26.10
2022-11-23T16:22:06.289Z,37.40
2022-11-23T16:24:36.396Z,37.50
2022-11-23T16:27:15.588Z,33.10
2022-11-23T16:29:44.173Z,24.10
2022-11-23T16:32:24.077Z,22.70
2022-11-23T16:34:52.999Z,28.80
2022-11-23T16:37:22.738Z,23.70
2022-11-23T16:39:50.751Z,25.40
2022-11-23T16:42:21.321Z,29.90
2022-11-23T16:44:49.374Z,34.80
2022-11-23T16:47:23.578Z,26.50
2022-11-23T16:49:54.725Z,29.70
2022-11-23T16:52:23.904Z,24.70
2022-11-23T16:54:53.014Z,26.90
2022-11-23T16:57:30.694Z,22.80
2022-11-23T17:00:04.682Z,26.30
2022-11-23T17:02:34.862Z,23.20
2022-11-23T17:05:04.428Z,25.00
2022-11-23T17:07:32.703Z,23.10
2022-11-23T17:10:02.321Z,31.70
2022-11-23T17:12:33.002Z,36.00
2022-11-23T17:15:02.031Z,30.10
2022-11-23T17:17:30.676Z,35.30
2022-11-23T17:20:04.581Z,40.40
2022-11-23T17:22:32.939Z,32.60
2022-11-23T17:25:06.894Z,33.20
2022-11-23T17:27:42.008Z,38.80
2022-11-23T17:30:22.023Z,39.30
2022-11-23T17:32:51.271Z,39.30
2022-11-23T17:35:19.748Z,40.20
2022-11-23T17:37:47.750Z,40.20
2022-11-23T17:40:21.629Z,46.60
2022-11-23T17:42:49.945Z,37.20
2022-11-23T17:45:18.080Z,50.40
2022-11-23T17:47:49.043Z,40.20
2022-11-23T17:50:22.322Z,34.20
2022-11-23T17:52:51.298Z,35.30
2022-11-23T17:55:20.389Z,39.40
2022-11-23T17:57:48.532Z,37.20
2022-11-23T18:00:22.301Z,38.50
2022-11-23T18:02:52.179Z,45.90
2022-11-23T18:05:22.056Z,34.60
2022-11-23T18:07:51.387Z,40.70
2022-11-23T18:10:19.781Z,39.10
2022-11-23T18:12:48.503Z,36.60
2022-11-23T18:15:18.801Z,34.20
2022-11-23T18:17:47.369Z,34.30
2022-11-23T18:20:18.429Z,36.00
2022-11-23T18:22:46.495Z,37.60
2022-11-23T18:25:15.366Z,41.50
2022-11-23T18:27:43.962Z,49.20
2022-11-23T18:30:15.221Z,45.30
2022-11-23T18:32:43.260Z,43.20
2022-11-23T18:35:11.352Z,46.40
2022-11-23T18:37:39.663Z,46.70
2022-11-23T18:40:08.179Z,43.10
2022-11-23T18:42:37.537Z,43.40
2022-11-23T18:45:09.066Z,48.00
2022-11-23T18:47:37.660Z,41.00
2022-11-23T18:50:07.169Z,38.20
2022-11-23T18:52:36.603Z,35.30
2022-11-23T18:55:05.580Z,39.20
2022-11-23T18:57:34.164Z,33.70
2022-11-23T19:00:06.203Z,27.20
2022-11-23T19:02:34.843Z,32.50
2022-11-23T19:05:03.011Z,36.30
2022-11-23T19:07:31.216Z,31.60
2022-11-23T19:09:59.208Z,36.00
2022-11-23T19:12:27.698Z,30.40
2022-11-23T19:14:55.888Z,36.80
2022-11-23T19:17:24.314Z,39.20
2022-11-23T19:19:52.396Z,42.80
2022-11-23T19:22:20.351Z,48.80
2022-11-23T19:24:48.601Z,46.30
2022-11-23T19:27:17.552Z,46.00
2022-11-23T19:29:45.752Z,45.60
2022-11-23T19:32:13.667Z,42.80
2022-11-23T19:34:44.226Z,48.20
2022-11-23T19:37:12.197Z,47.70
2022-11-23T19:39:40.214Z,50.70
2022-11-23T19:42:11.011Z,46.60
2022-11-23T19:44:39.127Z,41.90
2022-11-23T19:47:14.519Z,46.70
2022-11-23T19:49:45.266Z,52.10
2022-11-23T19:52:13.300Z,50.60
2022-11-23T19:54:42.162Z,50.30
2022-11-23T19:57:11.189Z,48.30
2022-11-23T19:59:39.265Z,51.40
2022-11-23T20:02:08.900Z,46.20
2022-11-23T20:04:38.565Z,46.80
2022-11-23T20:07:07.233Z,52.60
2022-11-23T20:09:35.928Z,47.50
2022-11-23T20:12:04.630Z,62.30
2022-11-23T20:14:32.616Z,51.70
2022-11-23T20:17:01.676Z,61.00
2022-11-23T20:19:30.092Z,55.10
2022-11-23T20:21:58.528Z,56.00
2022-11-23T20:24:29.523Z,53.10
2022-11-23T20:26:57.702Z,49.90
2022-11-23T20:29:25.997Z,45.70
2022-11-23T20:31:54.226Z,53.80
2022-11-23T20:34:26.157Z,43.30
2022-11-23T20:36:55.262Z,47.70
2022-11-23T20:39:25.771Z,40.80
2022-11-23T20:41:54.029Z,41.40
2022-11-23T20:44:23.775Z,42.60
2022-11-23T20:47:07.312Z,37.50
2022-11-23T20:49:37.952Z,42.80
2022-11-23T20:52:06.148Z,40.60
2022-11-23T20:54:34.420Z,54.00
2022-11-23T20:57:02.756Z,42.40
2022-11-23T20:59:33.031Z,45.90
2022-11-23T21:02:02.632Z,41.80
2022-11-23T21:04:30.861Z,42.10
2022-11-23T21:06:59.159Z,39.80
2022-11-23T21:09:28.110Z,39.80
2022-11-23T21:12:14.723Z,36.80
2022-11-23T21:14:43.152Z,42.10
2022-11-23T21:17:11.312Z,48.90
2022-11-23T21:19:39.694Z,35.30
2022-11-23T21:22:13.746Z,44.10
2022-11-23T21:24:42.352Z,40.90
2022-11-23T21:27:13.435Z,44.90
2022-11-23T21:29:44.169Z,40.40
2022-11-23T21:32:17.284Z,34.00
2022-11-23T21:34:45.775Z,37.50
2022-11-23T21:37:13.830Z,41.60
2022-11-23T21:39:42.020Z,37.10
2022-11-23T21:42:10.391Z,47.30
2022-11-23T21:44:39.295Z,37.70
2022-11-23T21:47:07.361Z,36.90
2022-11-23T21:49:35.445Z,38.90
2022-11-23T21:52:03.564Z,43.10
2022-11-23T21:54:32.832Z,39.70
2022-11-23T21:57:01.364Z,34.50
2022-11-23T21:59:29.350Z,30.40
2022-11-23T22:01:58.745Z,35.60
2022-11-23T22:04:30.378Z,37.30
2022-11-23T22:06:58.624Z,36.70
2022-11-23T22:09:27.230Z,33.90
2022-11-23T22:11:55.147Z,35.20
2022-11-23T22:14:23.407Z,35.80
2022-11-23T22:16:53.582Z,36.60
2022-11-23T22:19:21.570Z,36.00
2022-11-23T22:21:49.596Z,38.90
2022-11-23T22:24:19.684Z,35.60
2022-11-23T22:26:48.625Z,35.20
2022-11-23T22:29:17.012Z,39.40
2022-11-23T22:31:45.123Z,39.70
2022-11-23T22:34:14.273Z,39.70
2022-11-23T22:36:42.284Z,45.70
2022-11-23T22:39:10.798Z,36.50
2022-11-23T22:41:39.305Z,43.60
2022-11-23T22:44:09.711Z,44.70
2022-11-23T22:46:39.026Z,47.00
2022-11-23T22:49:07.402Z,41.70
2022-11-23T22:51:35.820Z,41.40
2022-11-23T22:54:03.890Z,46.30
2022-11-23T22:56:32.323Z,42.10
2022-11-23T22:59:00.334Z,46.30
2022-11-23T23:01:30.489Z,46.50
2022-11-23T23:04:03.194Z,47.00
2022-11-23T23:06:35.084Z,48.90
2022-11-23T23:09:07.002Z,42.20
2022-11-23T23:11:36.048Z,39.40
2022-11-23T23:14:04.493Z,40.00
2022-11-23T23:16:32.684Z,45.60
2022-11-23T23:19:01.216Z,44.60
2022-11-23T23:21:30.010Z,39.40
2022-11-23T23:24:01.559Z,42.90
2022-11-23T23:26:30.026Z,46.30
2022-11-23T23:29:00.611Z,38.80
2022-11-23T23:31:30.215Z,41.70
2022-11-23T23:33:59.864Z,39.50
2022-11-23T23:36:28.619Z,40.70
2022-11-23T23:38:58.105Z,43.40
2022-11-23T23:41:26.110Z,37.70
2022-11-23T23:43:54.063Z,37.30
2022-11-23T23:46:22.508Z,39.60
2022-11-23T23:48:50.569Z,39.20
2022-11-23T23:51:24.402Z,41.30
2022-11-23T23:53:52.863Z,43.90
2022-11-23T23:56:24.079Z,39.50
2022-11-23T23:58:54.448Z,41.50
